sensor_id;sensor_type;location;lat;lon;timestamp;temperature;humidity
1411;DHT22;700;51.906;8.404;2023-07-13T00:00:42;20.60;99.90
1411;DHT22;700;51.906;8.404;2023-07-13T00:05:43;20.70;99.90
1411;DHT22;700;51.906;8.404;2023-07-13T00:10:44;20.50;99.90
1411;DHT22;700;51.906;8.404;2023-07-13T00:15:46;20.50;99.90
1411;DHT22;700;51.906;8.404;2023-07-13T00:20:47;20.30;99.90
1411;DHT22;700;51.906;8.404;2023-07-13T00:25:47;20.40;99.90
1411;DHT22;700;51.906;8.404;2023-07-13T00:30:48;20.30;99.90
1411;DHT22;700;51.906;8.404;2023-07-13T00:35:49;20.10;99.90
1411;DHT22;700;51.906;8.404;2023-07-13T00:40:52;20.10;99.90
1411;DHT22;700;51.906;8.404;2023-07-13T00:50:57;20.30;99.90
1411;DHT22;700;51.906;8.404;2023-07-13T00:55:59;20.20;99.90
1411;DHT22;700;51.906;8.404;2023-07-13T01:01:04;20.20;99.90
1411;DHT22;700;51.906;8.404;2023-07-13T01:06:05;20.30;99.90
1411;DHT22;700;51.906;8.404;2023-07-13T01:11:05;20.50;99.90
1411;DHT22;700;51.906;8.404;2023-07-13T01:16:21;20.60;99.90
1411;DHT22;700;51.906;8.404;2023-07-13T01:21:22;20.60;99.90
1411;DHT22;700;51.906;8.404;2023-07-13T01:26:25;20.50;99.90
1411;DHT22;700;51.906;8.404;2023-07-13T01:31:26;20.80;99.90
1411;DHT22;700;51.906;8.404;2023-07-13T01:36:27;20.90;99.90
1411;DHT22;700;51.906;8.404;2023-07-13T01:41:32;20.90;99.90
1411;DHT22;700;51.906;8.404;2023-07-13T01:46:34;20.90;99.90
1411;DHT22;700;51.906;8.404;2023-07-13T01:51:35;20.80;99.90
1411;DHT22;700;51.906;8.404;2023-07-13T01:56:40;20.80;99.90
1411;DHT22;700;51.906;8.404;2023-07-13T02:01:44;20.80;99.90
1411;DHT22;700;51.906;8.404;2023-07-13T02:06:45;20.60;99.90
1411;DHT22;700;51.906;8.404;2023-07-13T02:11:45;20.30;99.90
1411;DHT22;700;51.906;8.404;2023-07-13T02:16:48;20.20;99.90
1411;DHT22;700;51.906;8.404;2023-07-13T02:21:49;20.30;99.90
1411;DHT22;700;51.906;8.404;2023-07-13T02:26:50;20.20;99.90
1411;DHT22;700;51.906;8.404;2023-07-13T02:31:50;20.10;99.90
1411;DHT22;700;51.906;8.404;2023-07-13T02:36:53;20.00;99.90
1411;DHT22;700;51.906;8.404;2023-07-13T02:41:56;20.00;99.90
1411;DHT22;700;51.906;8.404;2023-07-13T02:46:56;20.20;99.90
1411;DHT22;700;51.906;8.404;2023-07-13T02:51:59;20.10;99.90
1411;DHT22;700;51.906;8.404;2023-07-13T02:57:00;19.80;99.90
1411;DHT22;700;51.906;8.404;2023-07-13T03:02:02;19.60;99.90
1411;DHT22;700;51.906;8.404;2023-07-13T03:07:03;19.60;99.90
1411;DHT22;700;51.906;8.404;2023-07-13T03:12:05;19.50;99.90
1411;DHT22;700;51.906;8.404;2023-07-13T03:17:05;19.40;99.90
1411;DHT22;700;51.906;8.404;2023-07-13T03:22:06;19.20;99.90
1411;DHT22;700;51.906;8.404;2023-07-13T03:27:09;19.30;99.90
1411;DHT22;700;51.906;8.404;2023-07-13T03:32:10;19.40;99.90
1411;DHT22;700;51.906;8.404;2023-07-13T03:37:10;19.30;99.90
1411;DHT22;700;51.906;8.404;2023-07-13T03:42:14;19.10;99.90
1411;DHT22;700;51.906;8.404;2023-07-13T03:47:17;19.00;99.90
1411;DHT22;700;51.906;8.404;2023-07-13T03:52:20;18.80;99.90
1411;DHT22;700;51.906;8.404;2023-07-13T03:57:26;19.00;99.90
1411;DHT22;700;51.906;8.404;2023-07-13T04:02:26;18.80;99.90
1411;DHT22;700;51.906;8.404;2023-07-13T04:07:27;18.90;99.90
1411;DHT22;700;51.906;8.404;2023-07-13T04:12:28;19.00;99.90
1411;DHT22;700;51.906;8.404;2023-07-13T04:17:28;18.70;99.90
1411;DHT22;700;51.906;8.404;2023-07-13T04:22:31;18.80;99.90
1411;DHT22;700;51.906;8.404;2023-07-13T04:27:32;18.80;99.90
1411;DHT22;700;51.906;8.404;2023-07-13T04:32:33;18.80;99.90
1411;DHT22;700;51.906;8.404;2023-07-13T04:37:33;18.70;99.90
1411;DHT22;700;51.906;8.404;2023-07-13T04:42:35;18.70;99.90
1411;DHT22;700;51.906;8.404;2023-07-13T04:47:38;18.50;99.90
1411;DHT22;700;51.906;8.404;2023-07-13T04:52:41;18.40;99.90
1411;DHT22;700;51.906;8.404;2023-07-13T04:57:42;18.30;99.90
1411;DHT22;700;51.906;8.404;2023-07-13T05:02:46;18.30;99.90
1411;DHT22;700;51.906;8.404;2023-07-13T05:07:49;18.20;99.90
1411;DHT22;700;51.906;8.404;2023-07-13T05:12:50;18.40;99.90
1411;DHT22;700;51.906;8.404;2023-07-13T05:17:56;18.70;99.90
1411;DHT22;700;51.906;8.404;2023-07-13T05:22:56;18.50;99.90
1411;DHT22;700;51.906;8.404;2023-07-13T05:27:57;18.40;99.90
1411;DHT22;700;51.906;8.404;2023-07-13T05:33:00;18.80;99.90
1411;DHT22;700;51.906;8.404;2023-07-13T05:38:02;18.90;99.90
1411;DHT22;700;51.906;8.404;2023-07-13T05:43:05;18.90;99.90
1411;DHT22;700;51.906;8.404;2023-07-13T05:48:06;18.60;99.90
1411;DHT22;700;51.906;8.404;2023-07-13T05:53:07;18.80;99.90
1411;DHT22;700;51.906;8.404;2023-07-13T05:58:07;19.00;99.90
1411;DHT22;700;51.906;8.404;2023-07-13T06:03:08;19.20;99.90
1411;DHT22;700;51.906;8.404;2023-07-13T06:08:08;19.10;99.90
1411;DHT22;700;51.906;8.404;2023-07-13T06:13:11;19.40;99.90
1411;DHT22;700;51.906;8.404;2023-07-13T06:18:14;19.10;99.90
1411;DHT22;700;51.906;8.404;2023-07-13T06:23:15;19.30;99.90
1411;DHT22;700;51.906;8.404;2023-07-13T06:28:15;19.20;99.90
1411;DHT22;700;51.906;8.404;2023-07-13T06:33:16;19.70;99.90
1411;DHT22;700;51.906;8.404;2023-07-13T06:38:17;20.00;99.90
1411;DHT22;700;51.906;8.404;2023-07-13T06:43:17;19.70;99.90
1411;DHT22;700;51.906;8.404;2023-07-13T06:48:19;19.60;99.90
1411;DHT22;700;51.906;8.404;2023-07-13T06:53:21;19.60;99.90
1411;DHT22;700;51.906;8.404;2023-07-13T06:58:24;20.00;99.90
1411;DHT22;700;51.906;8.404;2023-07-13T07:03:25;20.20;99.90
1411;DHT22;700;51.906;8.404;2023-07-13T07:08:26;20.40;99.90
1411;DHT22;700;51.906;8.404;2023-07-13T07:13:26;20.50;99.90
1411;DHT22;700;51.906;8.404;2023-07-13T07:18:30;20.30;99.90
1411;DHT22;700;51.906;8.404;2023-07-13T07:23:31;20.60;99.90
1411;DHT22;700;51.906;8.404;2023-07-13T07:28:34;20.90;99.90
1411;DHT22;700;51.906;8.404;2023-07-13T07:33:37;21.00;99.90
1411;DHT22;700;51.906;8.404;2023-07-13T07:38:40;21.30;99.90
1411;DHT22;700;51.906;8.404;2023-07-13T07:43:43;21.20;99.90
1411;DHT22;700;51.906;8.404;2023-07-13T07:48:43;21.80;99.90
1411;DHT22;700;51.906;8.404;2023-07-13T07:53:47;22.10;99.90
1411;DHT22;700;51.906;8.404;2023-07-13T07:58:48;21.70;99.90
1411;DHT22;700;51.906;8.404;2023-07-13T08:03:49;22.50;99.90
1411;DHT22;700;51.906;8.404;2023-07-13T08:08:52;22.70;99.90
1411;DHT22;700;51.906;8.404;2023-07-13T08:13:54;22.40;99.90
1411;DHT22;700;51.906;8.404;2023-07-13T08:19:00;21.70;99.90
1411;DHT22;700;51.906;8.404;2023-07-13T08:24:00;22.20;99.90
1411;DHT22;700;51.906;8.404;2023-07-13T08:29:01;22.40;99.90
1411;DHT22;700;51.906;8.404;2023-07-13T08:34:04;22.80;99.90
1411;DHT22;700;51.906;8.404;2023-07-13T08:39:07;22.80;99.90
1411;DHT22;700;51.906;8.404;2023-07-13T08:49:44;23.50;99.90
1411;DHT22;700;51.906;8.404;2023-07-13T08:54:50;23.80;99.90
1411;DHT22;700;51.906;8.404;2023-07-13T08:59:51;24.30;99.90
1411;DHT22;700;51.906;8.404;2023-07-13T09:04:56;24.60;99.90
1411;DHT22;700;51.906;8.404;2023-07-13T09:15:30;24.60;99.90
1411;DHT22;700;51.906;8.404;2023-07-13T09:25:36;24.90;99.90
1411;DHT22;700;51.906;8.404;2023-07-13T09:30:38;24.60;99.90
1411;DHT22;700;51.906;8.404;2023-07-13T09:35:40;24.80;99.90
1411;DHT22;700;51.906;8.404;2023-07-13T09:41:05;25.90;99.90
1411;DHT22;700;51.906;8.404;2023-07-13T09:46:21;25.90;99.90
1411;DHT22;700;51.906;8.404;2023-07-13T09:51:22;27.40;99.90
1411;DHT22;700;51.906;8.404;2023-07-13T09:56:26;27.00;97.50
1411;DHT22;700;51.906;8.404;2023-07-13T10:01:36;28.00;95.20
1411;DHT22;700;51.906;8.404;2023-07-13T10:06:37;28.40;94.40
1411;DHT22;700;51.906;8.404;2023-07-13T10:11:42;30.00;91.90
1411;DHT22;700;51.906;8.404;2023-07-13T10:16:46;28.80;87.40
1411;DHT22;700;51.906;8.404;2023-07-13T10:32:25;32.50;74.60
1411;DHT22;700;51.906;8.404;2023-07-13T10:37:43;32.10;70.30
1411;DHT22;700;51.906;8.404;2023-07-13T10:42:48;31.40;66.40
1411;DHT22;700;51.906;8.404;2023-07-13T10:47:55;30.70;69.50
1411;DHT22;700;51.906;8.404;2023-07-13T10:53:30;33.20;61.90
1411;DHT22;700;51.906;8.404;2023-07-13T10:58:38;35.80;58.90
1411;DHT22;700;51.906;8.404;2023-07-13T11:08:52;32.50;59.30
1411;DHT22;700;51.906;8.404;2023-07-13T11:24:18;29.30;67.80
1411;DHT22;700;51.906;8.404;2023-07-13T11:34:37;30.00;65.80
1411;DHT22;700;51.906;8.404;2023-07-13T11:39:42;28.90;69.40
1411;DHT22;700;51.906;8.404;2023-07-13T11:44:53;29.00;69.70
1411;DHT22;700;51.906;8.404;2023-07-13T11:49:56;28.20;72.70
1411;DHT22;700;51.906;8.404;2023-07-13T11:55:03;31.20;66.30
1411;DHT22;700;51.906;8.404;2023-07-13T12:00:13;34.00;57.50
1411;DHT22;700;51.906;8.404;2023-07-13T12:05:18;32.00;58.30
1411;DHT22;700;51.906;8.404;2023-07-13T12:15:46;35.50;53.00
1411;DHT22;700;51.906;8.404;2023-07-13T12:20:50;33.50;52.50
1411;DHT22;700;51.906;8.404;2023-07-13T12:25:53;35.20;51.40
1411;DHT22;700;51.906;8.404;2023-07-13T12:30:58;36.10;44.70
1411;DHT22;700;51.906;8.404;2023-07-13T12:36:04;36.10;47.10
1411;DHT22;700;51.906;8.404;2023-07-13T12:41:08;38.60;46.30
1411;DHT22;700;51.906;8.404;2023-07-13T12:46:20;40.20;39.80
1411;DHT22;700;51.906;8.404;2023-07-13T12:51:27;39.10;35.50
1411;DHT22;700;51.906;8.404;2023-07-13T12:56:28;39.00;38.00
1411;DHT22;700;51.906;8.404;2023-07-13T13:01:35;38.80;38.00
1411;DHT22;700;51.906;8.404;2023-07-13T13:06:41;37.80;38.20
1411;DHT22;700;51.906;8.404;2023-07-13T13:11:44;36.20;40.30
1411;DHT22;700;51.906;8.404;2023-07-13T13:16:49;35.00;40.40
1411;DHT22;700;51.906;8.404;2023-07-13T13:21:52;33.90;43.30
1411;DHT22;700;51.906;8.404;2023-07-13T13:26:54;35.20;43.80
1411;DHT22;700;51.906;8.404;2023-07-13T13:31:56;34.80;43.00
1411;DHT22;700;51.906;8.404;2023-07-13T13:36:57;35.60;42.10
1411;DHT22;700;51.906;8.404;2023-07-13T13:41:58;33.90;42.40
1411;DHT22;700;51.906;8.404;2023-07-13T13:46:58;31.70;46.60
1411;DHT22;700;51.906;8.404;2023-07-13T13:52:02;31.00;49.60
1411;DHT22;700;51.906;8.404;2023-07-13T13:57:05;30.10;51.90
1411;DHT22;700;51.906;8.404;2023-07-13T14:02:22;29.70;56.50
1411;DHT22;700;51.906;8.404;2023-07-13T14:07:25;29.30;58.90
1411;DHT22;700;51.906;8.404;2023-07-13T14:12:27;28.70;61.60
1411;DHT22;700;51.906;8.404;2023-07-13T14:17:29;27.60;64.20
1411;DHT22;700;51.906;8.404;2023-07-13T14:22:31;26.50;76.10
1411;DHT22;700;51.906;8.404;2023-07-13T14:27:34;25.60;90.60
1411;DHT22;700;51.906;8.404;2023-07-13T14:32:35;25.20;98.00
1411;DHT22;700;51.906;8.404;2023-07-13T14:37:38;25.00;99.90
1411;DHT22;700;51.906;8.404;2023-07-13T14:42:41;24.60;99.90
1411;DHT22;700;51.906;8.404;2023-07-13T14:47:45;24.40;99.90
1411;DHT22;700;51.906;8.404;2023-07-13T14:52:47;24.20;99.90
1411;DHT22;700;51.906;8.404;2023-07-13T14:57:48;23.90;99.90
1411;DHT22;700;51.906;8.404;2023-07-13T15:02:52;23.60;99.90
1411;DHT22;700;51.906;8.404;2023-07-13T15:07:57;23.20;99.90
1411;DHT22;700;51.906;8.404;2023-07-13T15:13:01;22.80;99.90
1411;DHT22;700;51.906;8.404;2023-07-13T15:18:02;22.10;99.90
1411;DHT22;700;51.906;8.404;2023-07-13T15:23:06;21.20;99.90
1411;DHT22;700;51.906;8.404;2023-07-13T15:28:06;21.10;99.90
1411;DHT22;700;51.906;8.404;2023-07-13T15:33:28;21.10;99.90
1411;DHT22;700;51.906;8.404;2023-07-13T15:38:34;20.90;99.90
1411;DHT22;700;51.906;8.404;2023-07-13T15:43:40;21.20;99.90
1411;DHT22;700;51.906;8.404;2023-07-13T15:48:41;21.10;99.90
1411;DHT22;700;51.906;8.404;2023-07-13T15:53:45;20.90;99.90
1411;DHT22;700;51.906;8.404;2023-07-13T15:58:50;20.80;99.90
1411;DHT22;700;51.906;8.404;2023-07-13T16:03:50;21.10;99.90
1411;DHT22;700;51.906;8.404;2023-07-13T16:08:54;21.50;99.90
1411;DHT22;700;51.906;8.404;2023-07-13T16:13:57;21.50;99.90
1411;DHT22;700;51.906;8.404;2023-07-13T16:19:03;22.00;99.90
1411;DHT22;700;51.906;8.404;2023-07-13T16:24:04;22.70;99.90
1411;DHT22;700;51.906;8.404;2023-07-13T16:29:20;23.60;99.90
1411;DHT22;700;51.906;8.404;2023-07-13T16:34:20;23.80;99.90
1411;DHT22;700;51.906;8.404;2023-07-13T16:39:28;23.70;99.90
1411;DHT22;700;51.906;8.404;2023-07-13T16:44:32;23.40;99.90
1411;DHT22;700;51.906;8.404;2023-07-13T16:49:35;23.40;99.90
1411;DHT22;700;51.906;8.404;2023-07-13T16:54:40;23.50;99.90
1411;DHT22;700;51.906;8.404;2023-07-13T16:59:42;23.50;99.90
1411;DHT22;700;51.906;8.404;2023-07-13T17:04:45;23.50;99.90
1411;DHT22;700;51.906;8.404;2023-07-13T17:09:48;23.70;99.90
1411;DHT22;700;51.906;8.404;2023-07-13T17:14:48;23.40;99.90
1411;DHT22;700;51.906;8.404;2023-07-13T17:19:53;22.90;99.90
1411;DHT22;700;51.906;8.404;2023-07-13T17:24:54;22.80;99.90
1411;DHT22;700;51.906;8.404;2023-07-13T17:29:54;22.50;99.90
1411;DHT22;700;51.906;8.404;2023-07-13T17:34:57;22.60;99.90
1411;DHT22;700;51.906;8.404;2023-07-13T17:39:58;22.30;99.90
1411;DHT22;700;51.906;8.404;2023-07-13T17:45:01;22.30;99.90
1411;DHT22;700;51.906;8.404;2023-07-13T17:50:12;22.50;99.90
1411;DHT22;700;51.906;8.404;2023-07-13T17:55:16;22.30;99.90
1411;DHT22;700;51.906;8.404;2023-07-13T18:00:19;21.80;99.90
1411;DHT22;700;51.906;8.404;2023-07-13T18:05:36;21.20;99.90
1411;DHT22;700;51.906;8.404;2023-07-13T18:10:38;21.00;99.90
1411;DHT22;700;51.906;8.404;2023-07-13T18:15:38;20.80;99.90
1411;DHT22;700;51.906;8.404;2023-07-13T18:20:42;20.30;99.90
1411;DHT22;700;51.906;8.404;2023-07-13T18:25:45;20.10;99.90
1411;DHT22;700;51.906;8.404;2023-07-13T18:30:51;20.20;99.90
1411;DHT22;700;51.906;8.404;2023-07-13T18:35:53;20.20;99.90
1411;DHT22;700;51.906;8.404;2023-07-13T18:40:55;20.10;99.90
1411;DHT22;700;51.906;8.404;2023-07-13T18:45:58;19.90;99.90
1411;DHT22;700;51.906;8.404;2023-07-13T18:51:00;19.90;99.90
1411;DHT22;700;51.906;8.404;2023-07-13T18:56:01;19.80;99.90
1411;DHT22;700;51.906;8.404;2023-07-13T19:01:02;19.80;99.90
1411;DHT22;700;51.906;8.404;2023-07-13T19:06:04;19.80;99.90
1411;DHT22;700;51.906;8.404;2023-07-13T19:11:19;20.00;99.90
1411;DHT22;700;51.906;8.404;2023-07-13T19:16:20;19.90;99.90
1411;DHT22;700;51.906;8.404;2023-07-13T19:26:30;19.90;99.90
1411;DHT22;700;51.906;8.404;2023-07-13T19:31:38;19.90;99.90
1411;DHT22;700;51.906;8.404;2023-07-13T19:36:39;20.00;99.90
1411;DHT22;700;51.906;8.404;2023-07-13T19:41:42;20.10;99.90
1411;DHT22;700;51.906;8.404;2023-07-13T19:46:43;20.30;99.90
1411;DHT22;700;51.906;8.404;2023-07-13T19:51:47;20.40;99.90
1411;DHT22;700;51.906;8.404;2023-07-13T19:56:47;20.40;99.90
1411;DHT22;700;51.906;8.404;2023-07-13T20:01:53;20.30;99.90
1411;DHT22;700;51.906;8.404;2023-07-13T20:06:56;20.10;99.90
1411;DHT22;700;51.906;8.404;2023-07-13T20:11:57;20.10;99.90
1411;DHT22;700;51.906;8.404;2023-07-13T20:17:03;20.40;99.90
1411;DHT22;700;51.906;8.404;2023-07-13T20:22:09;20.30;99.90
1411;DHT22;700;51.906;8.404;2023-07-13T20:27:12;20.20;99.90
1411;DHT22;700;51.906;8.404;2023-07-13T20:32:15;20.00;99.90
1411;DHT22;700;51.906;8.404;2023-07-13T20:37:35;19.70;99.90
1411;DHT22;700;51.906;8.404;2023-07-13T20:42:36;19.90;99.90
1411;DHT22;700;51.906;8.404;2023-07-13T20:47:37;19.90;99.90
1411;DHT22;700;51.906;8.404;2023-07-13T20:52:39;19.80;99.90
1411;DHT22;700;51.906;8.404;2023-07-13T20:57:39;19.60;99.90
1411;DHT22;700;51.906;8.404;2023-07-13T21:02:40;19.60;99.90
1411;DHT22;700;51.906;8.404;2023-07-13T21:07:44;19.60;99.90
1411;DHT22;700;51.906;8.404;2023-07-13T21:12:45;19.80;99.90
1411;DHT22;700;51.906;8.404;2023-07-13T21:17:48;19.60;99.90
1411;DHT22;700;51.906;8.404;2023-07-13T21:22:49;19.70;99.90
1411;DHT22;700;51.906;8.404;2023-07-13T21:27:53;19.60;99.90
1411;DHT22;700;51.906;8.404;2023-07-13T21:32:56;19.50;99.90
1411;DHT22;700;51.906;8.404;2023-07-13T21:38:00;19.50;99.90
1411;DHT22;700;51.906;8.404;2023-07-13T21:43:01;19.30;99.90
1411;DHT22;700;51.906;8.404;2023-07-13T21:48:04;19.20;99.90
1411;DHT22;700;51.906;8.404;2023-07-13T21:53:27;19.30;99.90
1411;DHT22;700;51.906;8.404;2023-07-13T21:58:33;19.20;99.90
1411;DHT22;700;51.906;8.404;2023-07-13T22:03:36;19.00;99.90
1411;DHT22;700;51.906;8.404;2023-07-13T22:08:39;19.10;99.90
1411;DHT22;700;51.906;8.404;2023-07-13T22:13:41;18.80;99.90
1411;DHT22;700;51.906;8.404;2023-07-13T22:18:42;18.70;99.90
1411;DHT22;700;51.906;8.404;2023-07-13T22:23:44;18.90;99.90
1411;DHT22;700;51.906;8.404;2023-07-13T22:28:46;18.70;99.90
1411;DHT22;700;51.906;8.404;2023-07-13T22:33:47;18.80;99.90
1411;DHT22;700;51.906;8.404;2023-07-13T22:38:48;18.70;99.90
1411;DHT22;700;51.906;8.404;2023-07-13T22:43:50;18.50;99.90
1411;DHT22;700;51.906;8.404;2023-07-13T22:53:56;18.10;99.90
1411;DHT22;700;51.906;8.404;2023-07-13T22:58:57;18.00;99.90
1411;DHT22;700;51.906;8.404;2023-07-13T23:03:59;18.00;99.90
1411;DHT22;700;51.906;8.404;2023-07-13T23:09:01;18.20;99.90
1411;DHT22;700;51.906;8.404;2023-07-13T23:14:03;17.90;99.90
1411;DHT22;700;51.906;8.404;2023-07-13T23:19:16;17.90;99.90
1411;DHT22;700;51.906;8.404;2023-07-13T23:24:20;18.10;99.90
1411;DHT22;700;51.906;8.404;2023-07-13T23:29:26;17.90;99.90
1411;DHT22;700;51.906;8.404;2023-07-13T23:34:26;18.20;99.90
1411;DHT22;700;51.906;8.404;2023-07-13T23:39:30;18.40;99.90
1411;DHT22;700;51.906;8.404;2023-07-13T23:44:31;18.10;99.90
1411;DHT22;700;51.906;8.404;2023-07-13T23:49:34;18.00;99.90
1411;DHT22;700;51.906;8.404;2023-07-13T23:54:34;18.10;99.90
1411;DHT22;700;51.906;8.404;2023-07-13T23:59:35;18.20;99.90
